Upstream stations:
Downstream station:
SHEF ID: RIPO2 Cimarron River near Ripley, OK
STATION TYPE:
Regulating: Stage = 20.00, Flow = 35690
PRECIP STAGE RIV-FLOW AIR-TEMP WIND-DIRWIND-SPEED REL-HUMID VOLTAGE BAT-LOAD
in ft cfs F deg mph % volt volt
Ccp-Rev Ccp-Rev Ccp-Rev Ccp-Rev Ccp-Rev Ccp-Rev Ccp-Rev Ccp-Rev Ccp-Rev
(US/Central)
04/18 00:00 0.00 8.47 1474 ---- ---- ---- ---- ---- 12.57
04/18 01:00 0.00 8.46 1466 ---- ---- ---- ---- ---- 12.57
04/18 02:00 0.00 8.46 1466 ---- ---- ---- ---- ---- 12.57
04/18 03:00 0.00 8.45 1459 ---- ---- ---- ---- ---- 12.49
04/18 04:00 0.00 8.44 1451 ---- ---- ---- ---- ---- 12.49
04/18 05:00 0.00 8.43 1444 ---- ---- ---- ---- ---- 12.49
04/18 06:00 0.00 8.43 1444 ---- ---- ---- ---- ---- 12.49
04/18 07:00 0.00 8.43 1444 ---- ---- ---- ---- ---- 12.41
04/18 08:00 0.00 8.42 1436 ---- ---- ---- ---- ---- 12.41
04/18 09:00 0.00 8.42 1436 ---- ---- ---- ---- ---- 13.05
04/18 10:00 0.00 8.41 1429 ---- ---- ---- ---- ---- 13.68
04/18 11:00 0.00 8.42 1436 ---- ---- ---- ---- ---- 13.84
04/18 12:00 0.00 8.40 1422 ---- ---- ---- ---- ---- 13.76
04/18 13:00 0.00 8.41 1429 ---- ---- ---- ---- ---- 13.68
04/18 14:00 0.00 8.42 1436 ---- ---- ---- ---- ---- 13.68
04/18 15:00 0.00 8.42 1436 ---- ---- ---- ---- ---- 13.68
04/18 16:00 0.00 8.42 1436 ---- ---- ---- ---- ---- 13.68
04/18 17:00 0.00 8.41 1429 ---- ---- ---- ---- ---- 13.60
04/18 18:00 0.00 8.37 1396 ---- ---- ---- ---- ---- 13.84
04/18 19:00 0.00 8.44 1451 ---- ---- ---- ---- ---- 13.60
04/18 20:00 0.00 8.44 1451 ---- ---- ---- ---- ---- 13.53
04/18 21:00 0.00 8.44 1451 ---- ---- ---- ---- ---- 13.13
04/18 22:00 0.00 8.44 1451 ---- ---- ---- ---- ---- 12.73
04/18 23:00 0.00 8.45 1459 ---- ---- ---- ---- ---- 12.57